Rotterdam, Netherlands

12:03 AM CET on February 14, 2016 (GMT +0100)
Rotterdam | | Change Station
CLOSE
Current Station
Airport
Location: Rotterdam,
Elevation: -16 ft
Nearby Weather Stations

Elev -16 ft 51.95 °N, 4.44 °E | Updated 8 minutes ago

Drizzle
Drizzle
37 °F
Feels Like 30 °F
N
12
Wind Variable Wind from NE

Today
High -- | Low -- °F
--% Chance of Precip.
Yesterday
High -- | Low -- °F
Precip. -- in
Pressure 29.06 in
Visibility 3.7 miles
Clouds Few 800 ft
Mostly Cloudy 900 ft
Overcast 1100 ft
Windchill 30 °F
Dew Point 36 °F
Humidity 93%
Rainfall 0.00 in
Snow Depth Not available.
8:00 AM 5:53 PM
Waxing Crescent, 35% visible
METAR EHRD 132255Z AUTO 04010KT 010V070 6000 DZ FEW008 BKN009 OVC011 03/02 Q0984 NOSIG
Pressure 29.06 in
Visibility 3.7 miles
Clouds Few 800 ft
Mostly Cloudy 900 ft
Overcast 1100 ft
Windchill 30 °F
Dew Point 36 °F
Humidity 93%
Rainfall 0.00 in
Snow Depth Not available.
8:00 AM 5:53 PM
Waxing Crescent, 35% visible
METAR EHRD 132255Z AUTO 04010KT 010V070 6000 DZ FEW008 BKN009 OVC011 03/02 Q0984 NOSIG

10-Day Weather Forecast

Almanac

Astronomy

Feb. 14, 2016 Rise Set
Actual Time
Civil Twilight
Nautical Twilight
Astronomical Twilight
Moon
Length of Visible Light
Length of Day
Tomorrow will be .
, % of the Moon is Illuminated

Today's Extremes

Country Highs Country Lows

Community

WunderPhotos

Upload Photos

1,892,692 photos uploaded!

WunderBlog® & News

Nearby

Air Quality

  Air Quality AQ Index Pollutant
Not available.

Snow Depth

Station Depth Elevation

Earthquake Activity

City Distance Mag. Time & Date
Minimum magnitude displayed is 2.5.

Coastal Water Temperatures

Place Temperature

Stations

Nearby Weather Stations

Station Location Temp. Windchill Dew Point Humidity Wind Precip. Elev Updated Type